Time;durP1;ratioP1;P1;durP2;ratioP2;P2;SDS_P1;SDS_P2;PMS_P1;PMS_P2;Temp;Humidity;BMP_temperature;BMP_pressure;BME280_temperature;BME280_humidity;BME280_pressure;Samples;Min_cycle;Max_cycle;Signal;HPM_P1;HPM_P2
2023/10/26 00:00:34;;;;;;;1.70;1.13;;;;;;;;;;5053588;28;20391;-83
2023/10/26 00:03:00;;;;;;;1.77;1.50;;;;;;;;;;5059875;28;20372;-84
2023/10/26 00:05:26;;;;;;;2.20;1.23;;;;;;;;;;5073227;28;20969;-84
2023/10/26 00:07:52;;;;;;;1.50;1.10;;;;;;;;;;5054092;28;20723;-83
2023/10/26 00:10:18;;;;;;;1.00;0.90;;;;;;;;;;5053533;28;20391;-83
2023/10/26 00:12:47;;;;;;;2.17;1.27;;;;;;;;;;5053111;28;21112;-83
2023/10/26 00:15:13;;;;;;;1.25;0.90;;;;;;;;;;5052977;28;20864;-83
2023/10/26 00:17:39;;;;;;;1.77;0.88;;;;;;;;;;5053168;28;20462;-83
2023/10/26 00:20:06;;;;;;;0.82;0.60;;;;;;;;;;5053089;28;20419;-83
2023/10/26 00:22:32;;;;;;;0.93;0.68;;;;;;;;;;5052948;28;20383;-83
2023/10/26 00:24:58;;;;;;;1.00;0.45;;;;;;;;;;5052426;28;20457;-83
2023/10/26 00:27:24;;;;;;;0.70;0.40;;;;;;;;;;5040339;28;20870;-83
2023/10/26 00:29:50;;;;;;;1.00;0.60;;;;;;;;;;5064481;28;20394;-83
2023/10/26 00:32:16;;;;;;;1.10;0.50;;;;;;;;;;5052413;28;20745;-83
2023/10/26 00:34:43;;;;;;;1.30;0.70;;;;;;;;;;5065505;28;20396;-83
2023/10/26 00:37:09;;;;;;;1.50;0.85;;;;;;;;;;5056492;28;20390;-83
2023/10/26 00:39:35;;;;;;;1.17;0.52;;;;;;;;;;5052351;28;20402;-83
2023/10/26 00:42:01;;;;;;;0.60;0.53;;;;;;;;;;5066639;28;20389;-83
2023/10/26 00:44:27;;;;;;;0.80;0.40;;;;;;;;;;5052889;28;20415;-83
2023/10/26 00:46:54;;;;;;;0.90;0.60;;;;;;;;;;5066486;28;20397;-83
2023/10/26 00:49:21;;;;;;;1.02;0.50;;;;;;;;;;5052395;28;20729;-83
2023/10/26 00:51:57;;;;;;;1.33;0.50;;;;;;;;;;5052366;28;20390;-82
2023/10/26 00:54:24;;;;;;;0.97;0.50;;;;;;;;;;5052082;28;20402;-83
2023/10/26 00:56:50;;;;;;;1.08;0.40;;;;;;;;;;5051149;28;20390;-83
2023/10/26 00:59:20;;;;;;;0.90;0.30;;;;;;;;;;5053031;28;20407;-83
2023/10/26 01:01:46;;;;;;;0.70;0.40;;;;;;;;;;5052458;28;20383;-83
2023/10/26 01:04:14;;;;;;;1.08;0.38;;;;;;;;;;5066579;28;20410;-83
2023/10/26 01:06:40;;;;;;;1.00;0.40;;;;;;;;;;5051853;28;21089;-83
2023/10/26 01:09:09;;;;;;;0.38;0.30;;;;;;;;;;5052115;28;20419;-83
2023/10/26 01:11:42;;;;;;;2.00;0.45;;;;;;;;;;5064383;28;20387;-83
2023/10/26 01:14:08;;;;;;;0.60;0.40;;;;;;;;;;5051857;28;20733;-83
2023/10/26 01:16:34;;;;;;;0.40;0.30;;;;;;;;;;5058887;28;20388;-83
2023/10/26 01:19:04;;;;;;;0.30;0.30;;;;;;;;;;5058771;28;20818;-83
2023/10/26 01:21:30;;;;;;;1.30;0.30;;;;;;;;;;5052029;28;20397;-82
2023/10/26 01:23:56;;;;;;;0.35;0.22;;;;;;;;;;5057374;28;20429;-83
2023/10/26 01:26:22;;;;;;;0.63;0.30;;;;;;;;;;5052292;28;20399;-83
2023/10/26 01:28:48;;;;;;;1.00;0.30;;;;;;;;;;5052071;28;20384;-83
2023/10/26 01:31:18;;;;;;;0.20;0.20;;;;;;;;;;5052079;28;20425;-83
2023/10/26 01:33:44;;;;;;;0.20;0.20;;;;;;;;;;5052408;28;20761;-83
2023/10/26 01:36:10;;;;;;;0.90;0.30;;;;;;;;;;5065598;28;20887;-83
2023/10/26 01:38:36;;;;;;;2.17;0.60;;;;;;;;;;5053263;28;20426;-83
2023/10/26 01:41:03;;;;;;;1.13;0.63;;;;;;;;;;5051643;28;20891;-83
2023/10/26 01:43:29;;;;;;;0.80;0.60;;;;;;;;;;5052112;28;20410;-83
2023/10/26 01:45:55;;;;;;;1.27;0.50;;;;;;;;;;5050939;28;20433;-83
2023/10/26 01:48:23;;;;;;;0.77;0.50;;;;;;;;;;5052629;28;20376;-83
2023/10/26 01:50:49;;;;;;;0.52;0.40;;;;;;;;;;5056709;28;20389;-83
2023/10/26 01:53:15;;;;;;;0.80;0.38;;;;;;;;;;5061391;28;20415;-83
2023/10/26 01:55:42;;;;;;;0.60;0.40;;;;;;;;;;5053061;28;20435;-83
2023/10/26 01:58:08;;;;;;;0.55;0.32;;;;;;;;;;5058759;28;20399;-83
2023/10/26 02:00:33;;;;;;;2.00;0.37;;;;;;;;;;5053508;28;20382;-83
2023/10/26 02:02:59;;;;;;;0.55;0.30;;;;;;;;;;5062948;28;20369;-83
2023/10/26 02:05:26;;;;;;;1.27;0.40;;;;;;;;;;5044406;28;20404;-83
2023/10/26 02:07:52;;;;;;;0.70;0.32;;;;;;;;;;5048566;28;20706;-83
2023/10/26 02:10:19;;;;;;;1.00;0.30;;;;;;;;;;5054587;28;20927;-83
2023/10/26 02:12:45;;;;;;;1.30;0.30;;;;;;;;;;5040758;28;20615;-83
2023/10/26 02:15:11;;;;;;;0.87;0.30;;;;;;;;;;5053630;28;20391;-83
2023/10/26 02:17:37;;;;;;;0.65;0.30;;;;;;;;;;5054216;28;20398;-83
2023/10/26 02:20:04;;;;;;;0.88;0.28;;;;;;;;;;5055333;28;20375;-83
2023/10/26 02:22:30;;;;;;;0.95;0.25;;;;;;;;;;5058011;28;20399;-83
2023/10/26 02:24:56;;;;;;;0.80;0.40;;;;;;;;;;5036857;28;20430;-83
2023/10/26 02:27:22;;;;;;;0.30;0.30;;;;;;;;;;5054812;28;20443;-83
2023/10/26 02:29:48;;;;;;;0.80;0.35;;;;;;;;;;5052984;28;20383;-83
2023/10/26 02:32:13;;;;;;;0.60;0.50;;;;;;;;;;5062400;28;20378;-83
2023/10/26 02:34:39;;;;;;;0.55;0.32;;;;;;;;;;5058076;28;20383;-83
2023/10/26 02:37:06;;;;;;;0.67;0.30;;;;;;;;;;5064853;28;20391;-84
2023/10/26 02:39:32;;;;;;;1.48;0.50;;;;;;;;;;5053342;28;20402;-83
2023/10/26 02:41:58;;;;;;;0.80;0.40;;;;;;;;;;5036686;28;20421;-83
2023/10/26 02:44:24;;;;;;;0.60;0.50;;;;;;;;;;5054360;28;20422;-83
2023/10/26 02:46:50;;;;;;;0.70;0.50;;;;;;;;;;5067413;28;20390;-83
2023/10/26 02:49:16;;;;;;;1.30;0.80;;;;;;;;;;5056399;28;20400;-82
2023/10/26 02:51:42;;;;;;;1.70;0.70;;;;;;;;;;5053361;28;20391;-82
2023/10/26 02:54:08;;;;;;;1.48;0.80;;;;;;;;;;5035855;28;20393;-82
2023/10/26 02:56:34;;;;;;;1.02;0.77;;;;;;;;;;5036402;28;20403;-83
2023/10/26 02:59:00;;;;;;;1.40;0.80;;;;;;;;;;5036054;28;20840;-84
2023/10/26 03:01:31;;;;;;;1.00;0.80;;;;;;;;;;5034606;28;20423;-82
2023/10/26 03:03:57;;;;;;;1.00;0.80;;;;;;;;;;5052412;28;20430;-82
2023/10/26 03:06:23;;;;;;;1.05;0.80;;;;;;;;;;5053546;28;20387;-82
2023/10/26 03:08:49;;;;;;;1.30;0.80;;;;;;;;;;5053259;28;20390;-82
2023/10/26 03:11:15;;;;;;;1.58;0.80;;;;;;;;;;5056103;28;20395;-82
2023/10/26 03:13:41;;;;;;;0.85;0.80;;;;;;;;;;5065210;28;20416;-83
2023/10/26 03:16:07;;;;;;;1.80;0.98;;;;;;;;;;5053092;28;20390;-82
2023/10/26 03:18:33;;;;;;;1.85;1.05;;;;;;;;;;5035965;28;20855;-82
2023/10/26 03:20:59;;;;;;;1.60;1.40;;;;;;;;;;5053969;28;20394;-82
2023/10/26 03:23:25;;;;;;;2.40;1.40;;;;;;;;;;5055347;28;20423;-82
2023/10/26 03:25:51;;;;;;;1.97;1.50;;;;;;;;;;5037323;28;20399;-82
2023/10/26 03:28:17;;;;;;;1.58;1.48;;;;;;;;;;5053701;28;20407;-82
2023/10/26 03:30:43;;;;;;;1.60;1.10;;;;;;;;;;5037943;28;20394;-82
2023/10/26 03:33:09;;;;;;;1.10;0.80;;;;;;;;;;5053339;28;20379;-82
2023/10/26 03:35:35;;;;;;;1.10;0.73;;;;;;;;;;5054321;28;20422;-82
2023/10/26 03:38:01;;;;;;;0.60;0.60;;;;;;;;;;5057603;28;20837;-82
2023/10/26 03:40:27;;;;;;;0.70;0.60;;;;;;;;;;5053618;28;20398;-82
2023/10/26 03:42:53;;;;;;;1.27;0.60;;;;;;;;;;5054052;28;20748;-82
2023/10/26 03:45:19;;;;;;;0.60;0.60;;;;;;;;;;5062507;28;20432;-82
2023/10/26 03:47:45;;;;;;;0.70;0.50;;;;;;;;;;5066842;28;20410;-82
2023/10/26 03:50:11;;;;;;;1.40;0.43;;;;;;;;;;5053587;28;20391;-82
2023/10/26 03:52:37;;;;;;;0.52;0.30;;;;;;;;;;5053777;28;20757;-82
2023/10/26 03:55:04;;;;;;;0.82;0.30;;;;;;;;;;5053760;28;20467;-82
2023/10/26 03:57:31;;;;;;;0.20;0.20;;;;;;;;;;5067888;28;20383;-82
2023/10/26 03:59:57;;;;;;;0.30;0.30;;;;;;;;;;5050584;28;20409;-82
2023/10/26 04:02:23;;;;;;;0.68;0.50;;;;;;;;;;5061291;28;20377;-82
2023/10/26 04:04:50;;;;;;;1.20;0.38;;;;;;;;;;5045842;28;20768;-82
2023/10/26 04:07:16;;;;;;;0.83;0.50;;;;;;;;;;5053321;28;20954;-82
2023/10/26 04:09:42;;;;;;;0.57;0.38;;;;;;;;;;5057982;28;20405;-83
2023/10/26 04:12:08;;;;;;;0.55;0.50;;;;;;;;;;5061496;28;20383;-82
2023/10/26 04:14:34;;;;;;;1.00;0.60;;;;;;;;;;5064609;28;20391;-82
2023/10/26 04:17:00;;;;;;;2.30;0.80;;;;;;;;;;5053889;28;20454;-82
2023/10/26 04:19:26;;;;;;;1.03;0.60;;;;;;;;;;5053508;28;20939;-83
2023/10/26 04:21:52;;;;;;;1.35;0.80;;;;;;;;;;5061837;28;20382;-82
2023/10/26 04:24:18;;;;;;;1.33;0.80;;;;;;;;;;5059654;28;20402;-82
2023/10/26 04:26:44;;;;;;;1.38;0.80;;;;;;;;;;5064291;28;20383;-82
2023/10/26 04:29:10;;;;;;;0.88;0.60;;;;;;;;;;5053303;28;20391;-82
2023/10/26 04:31:36;;;;;;;1.23;0.68;;;;;;;;;;5057351;28;20435;-82
2023/10/26 04:34:02;;;;;;;1.13;0.70;;;;;;;;;;5062754;28;20371;-82
2023/10/26 04:36:28;;;;;;;1.23;0.70;;;;;;;;;;5052048;28;20402;-83
2023/10/26 04:38:54;;;;;;;2.90;1.92;;;;;;;;;;5053450;28;20374;-82
2023/10/26 04:41:20;;;;;;;2.13;1.60;;;;;;;;;;5052634;28;20378;-83
2023/10/26 04:43:46;;;;;;;1.20;1.10;;;;;;;;;;5053510;28;20423;-83
2023/10/26 04:46:12;;;;;;;0.90;0.80;;;;;;;;;;5061152;28;20454;-82
2023/10/26 04:48:39;;;;;;;1.17;0.80;;;;;;;;;;5059107;28;20390;-82
2023/10/26 04:51:06;;;;;;;1.25;0.90;;;;;;;;;;5066322;28;20438;-82
2023/10/26 04:53:32;;;;;;;0.57;0.50;;;;;;;;;;5053101;28;20872;-82
2023/10/26 04:55:58;;;;;;;0.93;0.65;;;;;;;;;;5067100;28;20391;-82
2023/10/26 04:58:24;;;;;;;0.50;0.50;;;;;;;;;;5052077;28;20422;-82
2023/10/26 05:00:50;;;;;;;0.50;0.50;;;;;;;;;;5055942;28;20377;-82
2023/10/26 05:03:16;;;;;;;0.90;0.70;;;;;;;;;;5063509;28;20803;-82
2023/10/26 05:05:42;;;;;;;1.33;0.60;;;;;;;;;;5052439;28;20434;-82
2023/10/26 05:08:08;;;;;;;0.60;0.60;;;;;;;;;;5051807;28;20868;-82
2023/10/26 05:10:34;;;;;;;0.63;0.63;;;;;;;;;;5051899;28;20390;-83
2023/10/26 05:13:00;;;;;;;0.47;0.47;;;;;;;;;;5050695;28;20387;-84
2023/10/26 05:15:26;;;;;;;0.88;0.70;;;;;;;;;;5052012;28;20382;-83
2023/10/26 05:17:52;;;;;;;0.68;0.60;;;;;;;;;;5037606;28;20403;-83
2023/10/26 05:20:18;;;;;;;0.60;0.50;;;;;;;;;;5061936;28;20394;-83
2023/10/26 05:22:44;;;;;;;0.45;0.45;;;;;;;;;;5051959;28;20391;-83
2023/10/26 05:25:12;;;;;;;0.70;0.60;;;;;;;;;;5051807;28;20426;-83
2023/10/26 05:27:38;;;;;;;1.00;0.50;;;;;;;;;;5066247;28;20453;-83
2023/10/26 05:30:05;;;;;;;0.30;0.30;;;;;;;;;;5065280;28;20383;-83
2023/10/26 05:32:31;;;;;;;0.40;0.30;;;;;;;;;;5055126;28;20399;-83
2023/10/26 05:34:57;;;;;;;0.40;0.40;;;;;;;;;;5053805;28;20391;-83
2023/10/26 05:37:23;;;;;;;0.30;0.30;;;;;;;;;;5053412;28;20379;-83
2023/10/26 05:39:49;;;;;;;0.90;0.30;;;;;;;;;;5054039;28;20391;-83
2023/10/26 05:42:15;;;;;;;0.60;0.30;;;;;;;;;;5065069;28;20394;-83
2023/10/26 05:44:41;;;;;;;0.40;0.30;;;;;;;;;;5053769;28;20422;-83
2023/10/26 05:47:07;;;;;;;0.40;0.40;;;;;;;;;;5057399;28;20792;-83
2023/10/26 05:49:34;;;;;;;0.45;0.45;;;;;;;;;;5064681;28;20444;-82
2023/10/26 05:52:01;;;;;;;2.10;1.60;;;;;;;;;;5054602;28;20386;-83
2023/10/26 05:54:28;;;;;;;2.30;1.80;;;;;;;;;;5039467;28;20387;-84
2023/10/26 05:56:54;;;;;;;2.22;1.20;;;;;;;;;;5056756;28;20402;-83
2023/10/26 05:59:20;;;;;;;2.00;1.40;;;;;;;;;;5053485;28;20391;-82
2023/10/26 06:01:46;;;;;;;2.60;2.00;;;;;;;;;;5052814;28;20375;-85
2023/10/26 06:04:12;;;;;;;2.30;2.20;;;;;;;;;;5056391;28;20429;-83
2023/10/26 06:06:38;;;;;;;3.42;3.20;;;;;;;;;;5042137;28;20410;-82
2023/10/26 06:09:04;;;;;;;2.73;2.53;;;;;;;;;;5054242;28;20391;-82
2023/10/26 06:11:30;;;;;;;2.28;2.08;;;;;;;;;;5053305;28;20375;-82
2023/10/26 06:13:56;;;;;;;2.15;2.00;;;;;;;;;;5046559;28;20387;-82
2023/10/26 06:16:22;;;;;;;2.10;2.00;;;;;;;;;;5052797;28;20388;-82
2023/10/26 06:18:48;;;;;;;1.55;1.45;;;;;;;;;;5057555;28;20390;-83
2023/10/26 06:21:14;;;;;;;3.03;1.92;;;;;;;;;;5053322;28;20387;-82
2023/10/26 06:23:40;;;;;;;4.03;3.20;;;;;;;;;;5053663;28;20411;-83
2023/10/26 06:26:06;;;;;;;9.93;6.25;;;;;;;;;;5053070;28;20379;-83
2023/10/26 06:28:32;;;;;;;7.50;4.97;;;;;;;;;;5054082;28;20378;-84
2023/10/26 06:31:11;;;;;;;3.47;2.93;;;;;;;;;;5055640;28;20512;-83
2023/10/26 06:33:37;;;;;;;2.00;1.80;;;;;;;;;;5052530;28;20447;-83
2023/10/26 06:36:03;;;;;;;3.92;3.00;;;;;;;;;;5049146;28;20383;-83
2023/10/26 06:38:29;;;;;;;4.32;3.35;;;;;;;;;;5039800;28;20418;-82
2023/10/26 06:40:55;;;;;;;5.00;4.60;;;;;;;;;;5047339;28;20415;-82
2023/10/26 06:43:24;;;;;;;2.65;2.45;;;;;;;;;;5049379;28;20425;-82
2023/10/26 06:45:50;;;;;;;1.80;1.70;;;;;;;;;;5048120;28;20458;-83
2023/10/26 06:48:18;;;;;;;3.30;2.85;;;;;;;;;;5055451;28;20411;-83
2023/10/26 06:50:44;;;;;;;2.05;1.80;;;;;;;;;;5051350;28;20385;-83
2023/10/26 06:53:12;;;;;;;1.98;1.60;;;;;;;;;;5057497;28;20391;-83
2023/10/26 06:55:38;;;;;;;2.33;1.92;;;;;;;;;;5048318;28;20383;-83
2023/10/26 06:58:07;;;;;;;3.30;2.50;;;;;;;;;;5029733;28;20399;-83
2023/10/26 07:00:34;;;;;;;3.10;2.80;;;;;;;;;;5045990;28;20406;-83
2023/10/26 07:03:00;;;;;;;3.53;2.42;;;;;;;;;;5047421;28;20406;-83
2023/10/26 07:05:27;;;;;;;4.43;3.10;;;;;;;;;;5046953;28;20422;-84
2023/10/26 07:07:53;;;;;;;3.78;2.40;;;;;;;;;;5047256;28;20379;-84
2023/10/26 07:10:19;;;;;;;1.55;1.10;;;;;;;;;;5048056;28;20426;-84
2023/10/26 07:12:46;;;;;;;1.43;1.03;;;;;;;;;;5034348;28;20379;-83
2023/10/26 07:15:12;;;;;;;1.13;0.75;;;;;;;;;;5046728;28;20386;-82
2023/10/26 07:17:38;;;;;;;0.60;0.50;;;;;;;;;;5044790;28;20466;-84
2023/10/26 07:20:05;;;;;;;1.17;0.80;;;;;;;;;;5045358;28;20390;-83
2023/10/26 07:22:34;;;;;;;1.83;1.20;;;;;;;;;;5045595;28;20395;-83
2023/10/26 07:25:01;;;;;;;2.35;1.58;;;;;;;;;;5047122;28;20418;-83
2023/10/26 07:27:27;;;;;;;1.13;0.90;;;;;;;;;;5057435;28;20385;-83
2023/10/26 07:29:53;;;;;;;1.20;0.75;;;;;;;;;;5048671;28;20417;-84
2023/10/26 07:32:20;;;;;;;1.30;0.80;;;;;;;;;;5047322;28;20380;-84
2023/10/26 07:34:46;;;;;;;1.65;1.02;;;;;;;;;;5029584;28;20391;-83
2023/10/26 07:37:12;;;;;;;1.05;0.77;;;;;;;;;;5046021;28;20445;-83
2023/10/26 07:39:38;;;;;;;1.20;1.00;;;;;;;;;;5048224;28;20434;-83
2023/10/26 07:42:07;;;;;;;1.60;0.90;;;;;;;;;;5047584;28;20414;-83
2023/10/26 07:44:36;;;;;;;1.50;1.10;;;;;;;;;;5047436;28;20415;-83
2023/10/26 07:47:02;;;;;;;1.00;0.80;;;;;;;;;;5046879;28;20895;-83
2023/10/26 07:49:28;;;;;;;1.70;0.70;;;;;;;;;;5047206;28;20418;-83
2023/10/26 07:51:54;;;;;;;1.00;0.60;;;;;;;;;;5047926;28;20375;-83
2023/10/26 07:54:20;;;;;;;1.30;0.90;;;;;;;;;;5045948;28;20429;-83
2023/10/26 07:56:46;;;;;;;1.40;0.80;;;;;;;;;;5047027;28;20442;-83
2023/10/26 07:59:12;;;;;;;1.00;0.90;;;;;;;;;;5046728;28;20387;-83
2023/10/26 08:01:38;;;;;;;2.00;1.10;;;;;;;;;;5046479;28;20398;-83
2023/10/26 08:04:04;;;;;;;2.13;1.20;;;;;;;;;;5053779;28;20417;-83
2023/10/26 08:06:30;;;;;;;1.92;1.00;;;;;;;;;;5045131;28;20387;-83
2023/10/26 08:08:58;;;;;;;1.00;0.60;;;;;;;;;;5051665;28;20397;-85
2023/10/26 08:11:24;;;;;;;1.08;0.70;;;;;;;;;;5032799;28;20379;-83
2023/10/26 08:13:50;;;;;;;1.00;0.50;;;;;;;;;;5046093;28;20433;-84
2023/10/26 08:16:16;;;;;;;0.60;0.50;;;;;;;;;;5044627;28;20430;-84
2023/10/26 08:18:42;;;;;;;0.55;0.43;;;;;;;;;;5045750;28;20879;-84
2023/10/26 08:21:09;;;;;;;0.47;0.45;;;;;;;;;;5046258;28;20934;-85
2023/10/26 08:23:35;;;;;;;0.68;0.45;;;;;;;;;;5045428;28;20461;-84
2023/10/26 08:26:08;;;;;;;1.50;0.68;;;;;;;;;;5046878;28;20856;-83
2023/10/26 08:28:35;;;;;;;1.27;0.50;;;;;;;;;;5028774;28;20425;-84
2023/10/26 08:31:01;;;;;;;0.60;0.60;;;;;;;;;;5028497;28;20395;-83
2023/10/26 08:33:27;;;;;;;0.82;0.50;;;;;;;;;;5045883;28;20451;-84
2023/10/26 08:35:53;;;;;;;0.82;0.70;;;;;;;;;;5028011;28;20394;-85
2023/10/26 08:38:19;;;;;;;0.93;0.68;;;;;;;;;;5029186;28;20446;-85
2023/10/26 08:40:52;;;;;;;0.85;0.80;;;;;;;;;;5028266;28;20395;-84
2023/10/26 08:43:19;;;;;;;1.17;0.90;;;;;;;;;;5051390;28;20390;-85
2023/10/26 08:45:45;;;;;;;1.20;0.90;;;;;;;;;;5027866;28;20960;-84
2023/10/26 08:48:18;;;;;;;1.20;0.98;;;;;;;;;;5027717;28;20401;-84
2023/10/26 08:50:48;;;;;;;1.10;1.00;;;;;;;;;;5025402;28;20386;-85
2023/10/26 08:53:14;;;;;;;1.20;0.90;;;;;;;;;;5033313;28;20386;-84
2023/10/26 08:55:42;;;;;;;1.00;0.80;;;;;;;;;;5042195;28;20387;-84
2023/10/26 08:58:08;;;;;;;0.90;0.90;;;;;;;;;;5028656;28;20748;-84
2023/10/26 09:00:41;;;;;;;1.50;0.90;;;;;;;;;;5029584;28;20390;-84
2023/10/26 09:03:07;;;;;;;0.70;0.70;;;;;;;;;;5029866;28;20726;-85
2023/10/26 09:05:51;;;;;;;1.10;0.80;;;;;;;;;;5029747;28;20398;-86
2023/10/26 09:08:17;;;;;;;1.63;0.80;;;;;;;;;;5049448;28;20402;-86
2023/10/26 09:10:43;;;;;;;1.77;0.93;;;;;;;;;;5031698;28;20391;-85
2023/10/26 09:13:10;;;;;;;1.35;1.00;;;;;;;;;;5040797;28;20395;-85
2023/10/26 09:15:50;;;;;;;0.93;0.85;;;;;;;;;;5049451;28;20418;-86
2023/10/26 09:18:16;;;;;;;1.37;0.90;;;;;;;;;;5029211;28;20395;-85
2023/10/26 09:20:43;;;;;;;1.10;1.00;;;;;;;;;;5045926;28;20387;-84
2023/10/26 09:23:28;;;;;;;1.10;0.93;;;;;;;;;;5043744;28;20375;-83
2023/10/26 09:25:57;;;;;;;1.55;1.00;;;;;;;;;;5041572;28;20379;-82
2023/10/26 09:28:24;;;;;;;1.40;1.10;;;;;;;;;;5040718;28;20720;-83
2023/10/26 09:30:50;;;;;;;1.30;1.20;;;;;;;;;;5041280;28;20478;-83
2023/10/26 09:33:25;;;;;;;1.30;1.20;;;;;;;;;;5042579;28;20387;-84
2023/10/26 09:35:52;;;;;;;1.80;1.27;;;;;;;;;;5047336;28;20398;-84
2023/10/26 09:38:33;;;;;;;1.67;1.48;;;;;;;;;;5046844;28;20410;-84
2023/10/26 09:40:59;;;;;;;1.57;1.40;;;;;;;;;;5040694;28;20454;-84
2023/10/26 09:43:25;;;;;;;2.55;1.45;;;;;;;;;;5045524;28;20398;-84
2023/10/26 09:45:52;;;;;;;2.20;1.50;;;;;;;;;;5045776;28;20387;-83
2023/10/26 09:48:18;;;;;;;3.72;1.75;;;;;;;;;;5045267;28;20437;-85
2023/10/26 09:50:45;;;;;;;2.10;1.75;;;;;;;;;;5046387;28;20439;-84
2023/10/26 09:53:11;;;;;;;2.87;1.83;;;;;;;;;;5055579;28;20476;-84
2023/10/26 09:55:37;;;;;;;2.50;2.30;;;;;;;;;;5045555;28;20399;-85
2023/10/26 09:58:05;;;;;;;2.60;2.40;;;;;;;;;;5043315;28;20841;-83
2023/10/26 10:00:33;;;;;;;2.65;2.03;;;;;;;;;;5043548;28;20387;-84
2023/10/26 10:03:18;;;;;;;1.80;1.70;;;;;;;;;;5047795;28;20382;-84
2023/10/26 10:05:50;;;;;;;2.08;1.77;;;;;;;;;;5048398;28;20869;-85
2023/10/26 10:08:36;;;;;;;2.03;1.80;;;;;;;;;;5033847;28;20738;-85
2023/10/26 10:11:21;;;;;;;3.22;1.83;;;;;;;;;;5050212;28;20387;-85
2023/10/26 10:13:47;;;;;;;2.63;1.63;;;;;;;;;;5052819;28;20398;-85
2023/10/26 10:16:32;;;;;;;2.38;1.60;;;;;;;;;;5054052;28;20382;-85
2023/10/26 10:19:17;;;;;;;2.47;1.52;;;;;;;;;;5053013;28;20487;-85
2023/10/26 10:21:43;;;;;;;3.03;1.40;;;;;;;;;;5038129;28;20469;-85
2023/10/26 10:24:09;;;;;;;3.22;1.40;;;;;;;;;;5050303;28;20415;-83
2023/10/26 10:26:54;;;;;;;4.63;1.70;;;;;;;;;;5032365;28;20430;-85
2023/10/26 10:29:21;;;;;;;4.07;1.80;;;;;;;;;;5050735;28;20395;-85
2023/10/26 10:31:47;;;;;;;4.23;1.70;;;;;;;;;;5036494;28;20394;-86
2023/10/26 10:34:17;;;;;;;4.35;1.75;;;;;;;;;;5051893;28;20430;-85
2023/10/26 10:37:02;;;;;;;4.00;1.70;;;;;;;;;;5039461;28;20423;-85
2023/10/26 10:39:27;;;;;;;3.33;1.92;;;;;;;;;;5060278;28;20385;-85
2023/10/26 10:41:54;;;;;;;5.15;1.75;;;;;;;;;;5045730;28;20422;-85
2023/10/26 10:44:20;;;;;;;6.63;1.95;;;;;;;;;;5047649;28;20486;-85
2023/10/26 10:46:49;;;;;;;5.65;2.30;;;;;;;;;;5067440;22;20402;-80
2023/10/26 10:49:16;;;;;;;5.97;2.00;;;;;;;;;;5047618;28;20390;-82
2023/10/26 10:51:43;;;;;;;6.05;1.80;;;;;;;;;;5042447;28;20367;-82
2023/10/26 10:54:11;;;;;;;5.13;1.70;;;;;;;;;;5055610;28;20382;-82
2023/10/26 10:56:41;;;;;;;5.77;2.00;;;;;;;;;;5044148;28;20456;-82
2023/10/26 10:59:23;;;;;;;5.72;1.95;;;;;;;;;;5042605;28;20421;-82
2023/10/26 11:01:50;;;;;;;4.63;1.80;;;;;;;;;;5042912;28;20845;-82
2023/10/26 11:04:17;;;;;;;5.18;1.70;;;;;;;;;;5042211;28;20465;-82
2023/10/26 11:06:48;;;;;;;4.82;1.73;;;;;;;;;;5044986;28;20406;-82
2023/10/26 11:09:29;;;;;;;5.05;1.58;;;;;;;;;;5042662;28;20383;-82
2023/10/26 11:11:55;;;;;;;4.60;1.55;;;;;;;;;;5031184;28;20500;-82
2023/10/26 11:14:22;;;;;;;6.18;1.70;;;;;;;;;;5039928;28;20423;-82
2023/10/26 11:16:49;;;;;;;6.40;2.00;;;;;;;;;;5042131;28;20382;-81
2023/10/26 11:19:15;;;;;;;7.57;2.20;;;;;;;;;;5041215;28;20501;-82
2023/10/26 11:21:41;;;;;;;6.78;2.40;;;;;;;;;;5023454;28;20392;-82
2023/10/26 11:24:07;;;;;;;9.32;2.22;;;;;;;;;;5041173;28;20415;-82
2023/10/26 11:26:33;;;;;;;5.45;1.77;;;;;;;;;;5041296;28;20402;-82
2023/10/26 11:29:04;;;;;;;10.13;2.20;;;;;;;;;;5039671;28;20383;-82
2023/10/26 11:31:39;;;;;;;8.07;2.10;;;;;;;;;;5038782;28;20833;-81
2023/10/26 11:34:06;;;;;;;5.60;2.00;;;;;;;;;;5040455;28;20383;-82
2023/10/26 11:36:32;;;;;;;7.68;2.10;;;;;;;;;;5039791;28;20434;-82
2023/10/26 11:38:58;;;;;;;8.73;1.98;;;;;;;;;;5032706;28;20390;-82
2023/10/26 11:41:30;;;;;;;6.00;2.15;;;;;;;;;;5019924;28;20467;-82
2023/10/26 11:43:58;;;;;;;10.67;2.20;;;;;;;;;;5036019;28;20730;-82
2023/10/26 11:46:42;;;;;;;6.65;1.80;;;;;;;;;;5040128;28;20423;-82
2023/10/26 11:49:08;;;;;;;7.73;2.20;;;;;;;;;;5045391;28;20471;-82
2023/10/26 11:51:34;;;;;;;7.03;2.15;;;;;;;;;;5040673;28;20379;-82
2023/10/26 11:54:12;;;;;;;7.13;2.20;;;;;;;;;;5041005;28;20383;-82
2023/10/26 11:56:38;;;;;;;6.00;2.00;;;;;;;;;;5036092;28;20383;-82
2023/10/26 11:59:04;;;;;;;5.03;1.83;;;;;;;;;;5040269;28;20454;-82
2023/10/26 12:01:30;;;;;;;5.53;1.80;;;;;;;;;;5024732;28;20393;-82
2023/10/26 12:03:56;;;;;;;6.53;1.92;;;;;;;;;;5036038;28;20422;-82
2023/10/26 12:06:22;;;;;;;5.47;2.10;;;;;;;;;;5038765;28;20391;-82
2023/10/26 12:08:48;;;;;;;7.13;2.33;;;;;;;;;;5040812;28;20388;-82
2023/10/26 12:11:14;;;;;;;9.00;2.40;;;;;;;;;;5039389;28;20490;-82
2023/10/26 12:13:40;;;;;;;6.93;2.15;;;;;;;;;;5027199;28;20413;-82
2023/10/26 12:16:06;;;;;;;8.20;2.03;;;;;;;;;;5038757;28;20387;-82
2023/10/26 12:18:35;;;;;;;7.38;2.40;;;;;;;;;;5032400;28;20423;-82
2023/10/26 12:21:01;;;;;;;8.70;2.30;;;;;;;;;;5039077;28;20383;-82
2023/10/26 12:23:27;;;;;;;6.93;2.50;;;;;;;;;;5040184;28;20387;-82
2023/10/26 12:25:53;;;;;;;7.35;2.35;;;;;;;;;;5038017;28;20789;-82
2023/10/26 12:28:19;;;;;;;6.32;2.08;;;;;;;;;;5041989;28;20380;-82
2023/10/26 12:30:45;;;;;;;7.28;2.25;;;;;;;;;;5035003;28;20784;-82
2023/10/26 12:33:12;;;;;;;6.47;2.67;;;;;;;;;;5032456;28;20390;-82
2023/10/26 12:35:39;;;;;;;8.23;2.20;;;;;;;;;;5032178;28;20394;-81
2023/10/26 12:38:04;;;;;;;7.45;2.10;;;;;;;;;;5032770;28;20411;-82
2023/10/26 12:40:31;;;;;;;6.55;2.10;;;;;;;;;;5033078;28;20395;-81
2023/10/26 12:42:57;;;;;;;8.70;2.58;;;;;;;;;;5033653;28;20848;-80
2023/10/26 12:45:23;;;;;;;7.90;2.65;;;;;;;;;;5034250;28;20502;-82
2023/10/26 12:47:49;;;;;;;5.93;2.28;;;;;;;;;;5033959;28;20398;-82
2023/10/26 12:50:15;;;;;;;9.33;2.43;;;;;;;;;;5034182;28;20453;-82
2023/10/26 12:52:44;;;;;;;5.65;2.28;;;;;;;;;;5035145;28;20407;-81
2023/10/26 12:55:10;;;;;;;9.47;2.53;;;;;;;;;;5025440;28;20433;-82
2023/10/26 12:57:38;;;;;;;4.43;1.98;;;;;;;;;;5017012;28;20537;-82
2023/10/26 13:00:05;;;;;;;6.50;2.20;;;;;;;;;;5035056;28;20790;-82
2023/10/26 13:02:31;;;;;;;5.82;2.05;;;;;;;;;;5034489;28;20398;-82
2023/10/26 13:04:57;;;;;;;7.15;2.10;;;;;;;;;;5035219;28;20738;-82
2023/10/26 13:07:23;;;;;;;7.67;2.60;;;;;;;;;;5035529;28;20394;-82
2023/10/26 13:09:49;;;;;;;7.03;2.20;;;;;;;;;;5034854;28;20411;-82
2023/10/26 13:12:15;;;;;;;6.57;1.98;;;;;;;;;;5017640;28;20888;-82
2023/10/26 13:14:41;;;;;;;6.22;2.03;;;;;;;;;;5036048;28;20418;-81
2023/10/26 13:17:07;;;;;;;7.17;1.97;;;;;;;;;;5036005;28;20387;-82
2023/10/26 13:19:34;;;;;;;5.47;1.90;;;;;;;;;;5018162;28;20493;-82
2023/10/26 13:22:00;;;;;;;6.38;2.22;;;;;;;;;;5036985;28;20375;-82
2023/10/26 13:24:26;;;;;;;5.65;1.77;;;;;;;;;;5036221;28;20510;-81
2023/10/26 13:26:52;;;;;;;6.15;1.73;;;;;;;;;;5037341;28;20869;-81
2023/10/26 13:29:18;;;;;;;5.43;1.70;;;;;;;;;;5035529;28;20382;-82
2023/10/26 13:31:44;;;;;;;5.47;2.05;;;;;;;;;;5035943;28;20387;-82
2023/10/26 13:34:10;;;;;;;5.03;2.00;;;;;;;;;;5037067;28;20379;-81
2023/10/26 13:36:36;;;;;;;6.60;1.90;;;;;;;;;;5035602;28;20398;-81
2023/10/26 13:39:04;;;;;;;5.78;2.05;;;;;;;;;;5034936;28;20410;-82
2023/10/26 13:41:30;;;;;;;5.68;2.05;;;;;;;;;;5038604;28;20398;-82
2023/10/26 13:43:56;;;;;;;11.02;3.70;;;;;;;;;;5028147;28;20418;-82
2023/10/26 13:46:22;;;;;;;7.03;2.00;;;;;;;;;;5037117;28;20387;-82
2023/10/26 13:48:48;;;;;;;5.18;1.60;;;;;;;;;;5037472;28;20375;-82
2023/10/26 13:51:17;;;;;;;5.45;1.52;;;;;;;;;;5037630;28;20829;-82
2023/10/26 13:53:44;;;;;;;6.57;2.20;;;;;;;;;;5040896;28;20430;-82
2023/10/26 13:56:10;;;;;;;6.50;2.03;;;;;;;;;;5041361;28;20393;-82
2023/10/26 13:58:36;;;;;;;6.57;2.23;;;;;;;;;;5040983;28;20375;-82
2023/10/26 14:01:02;;;;;;;7.05;2.05;;;;;;;;;;5041117;28;20448;-82
2023/10/26 14:03:27;;;;;;;5.70;1.90;;;;;;;;;;5039639;28;20435;-82
2023/10/26 14:05:53;;;;;;;3.75;1.70;;;;;;;;;;5040585;28;20394;-82
2023/10/26 14:08:20;;;;;;;5.07;2.40;;;;;;;;;;5043323;28;20410;-82
2023/10/26 14:10:46;;;;;;;7.15;2.17;;;;;;;;;;5041144;28;20391;-82
2023/10/26 14:13:13;;;;;;;7.33;2.53;;;;;;;;;;5045438;28;20385;-81
2023/10/26 14:15:39;;;;;;;4.93;1.80;;;;;;;;;;5043673;28;20441;-82
2023/10/26 14:18:05;;;;;;;5.55;2.08;;;;;;;;;;5040630;28;20478;-81
2023/10/26 14:20:31;;;;;;;7.95;2.55;;;;;;;;;;5040621;28;20844;-82
2023/10/26 14:22:57;;;;;;;7.45;2.75;;;;;;;;;;5040508;28;20467;-82
2023/10/26 14:25:23;;;;;;;5.85;2.22;;;;;;;;;;5041196;28;20415;-81
2023/10/26 14:27:50;;;;;;;4.25;1.60;;;;;;;;;;5042059;28;20383;-82
2023/10/26 14:30:16;;;;;;;4.57;1.80;;;;;;;;;;5042383;28;20848;-82
2023/10/26 14:32:42;;;;;;;4.07;1.55;;;;;;;;;;5041776;28;20383;-82
2023/10/26 14:35:08;;;;;;;3.72;1.40;;;;;;;;;;5039706;28;20736;-81
2023/10/26 14:37:34;;;;;;;2.50;1.10;;;;;;;;;;5041554;28;20384;-80
2023/10/26 14:40:00;;;;;;;3.17;1.20;;;;;;;;;;5033204;28;20395;-81
2023/10/26 14:42:26;;;;;;;2.78;0.93;;;;;;;;;;5027954;28;20775;-82